createdAt,value
2019-02-25T00:04:39.304Z,103176.30
2019-02-25T00:09:43.660Z,103166.76
2019-02-25T00:14:47.879Z,103170.33
2019-02-25T00:19:52.094Z,103166.29
2019-02-25T00:24:56.327Z,103168.45
2019-02-25T00:30:00.565Z,103153.81
2019-02-25T00:35:05.023Z,103140.72
2019-02-25T00:40:09.291Z,103152.13
2019-02-25T00:45:13.776Z,103146.27
2019-02-25T00:50:18.113Z,103154.25
2019-02-25T00:55:22.346Z,103153.39
2019-02-25T01:00:27.467Z,103151.41
2019-02-25T01:05:31.688Z,103118.28
2019-02-25T01:10:35.947Z,103142.63
2019-02-25T01:15:40.190Z,103137.84
2019-02-25T01:20:44.433Z,103143.52
2019-02-25T01:25:48.672Z,103151.53
2019-02-25T01:30:52.907Z,103140.83
2019-02-25T01:35:57.148Z,103141.98
2019-02-25T01:41:01.381Z,103143.41
2019-02-25T01:46:05.631Z,103136.09
2019-02-25T01:51:10.106Z,103134.74
2019-02-25T01:56:14.334Z,103114.97
2019-02-25T02:01:18.563Z,103124.53
2019-02-25T02:06:22.778Z,103116.41
2019-02-25T02:11:26.999Z,103121.09
2019-02-25T02:16:31.235Z,103119.40
2019-02-25T02:21:35.434Z,103114.77
2019-02-25T02:26:39.664Z,103110.08
2019-02-25T02:31:43.890Z,103093.15
2019-02-25T02:36:48.109Z,103111.37
2019-02-25T02:42:15.861Z,103106.45
2019-02-25T02:47:50.917Z,103088.77
2019-02-25T02:52:55.202Z,103090.80
2019-02-25T02:57:59.441Z,103089.37
2019-02-25T03:03:03.684Z,103079.48
2019-02-25T03:08:07.906Z,103076.82
2019-02-25T03:13:12.140Z,103089.20
2019-02-25T03:18:16.357Z,103090.98
2019-02-25T03:23:20.590Z,103108.52
2019-02-25T03:28:24.827Z,103098.63
2019-02-25T03:33:29.075Z,103109.25
2019-02-25T03:38:33.307Z,103103.12
2019-02-25T03:43:37.521Z,103109.97
2019-02-25T03:48:41.757Z,103107.63
2019-02-25T03:53:45.973Z,103108.95
2019-02-25T03:58:50.201Z,103094.16
2019-02-25T04:03:54.438Z,103094.08
2019-02-25T04:08:58.671Z,103092.27
2019-02-25T04:14:03.112Z,103095.55
2019-02-25T04:19:10.659Z,103084.20
2019-02-25T04:24:14.904Z,103077.80
2019-02-25T04:29:19.123Z,103073.39
2019-02-25T04:34:23.523Z,103072.70
2019-02-25T04:39:28.207Z,103071.51
2019-02-25T04:44:32.475Z,103074.61
2019-02-25T04:49:36.711Z,103099.50
2019-02-25T04:54:40.954Z,103101.29
2019-02-25T04:59:45.295Z,103110.06
2019-02-25T05:04:49.536Z,103107.41
2019-02-25T05:09:53.761Z,103098.13
2019-02-25T05:14:57.991Z,103106.20
2019-02-25T05:20:02.251Z,103115.49
2019-02-25T05:25:08.197Z,103120.45
2019-02-25T05:30:12.879Z,103118.39
2019-02-25T05:35:17.103Z,103120.45
2019-02-25T05:40:21.338Z,103119.50
2019-02-25T05:45:25.559Z,103120.21
2019-02-25T05:50:29.790Z,103121.66
2019-02-25T05:55:34.096Z,103114.69
2019-02-25T06:00:38.350Z,103127.58
2019-02-25T06:05:42.562Z,103136.48
2019-02-25T06:10:46.820Z,103132.88
2019-02-25T06:15:51.493Z,103131.57
2019-02-25T06:20:55.797Z,103128.65
2019-02-25T06:26:00.059Z,103136.60
2019-02-25T06:31:04.267Z,103130.11
2019-02-25T06:36:08.486Z,103137.81
2019-02-25T06:41:12.735Z,103136.13
2019-02-25T06:46:16.960Z,103147.80
2019-02-25T06:51:21.185Z,103152.52
2019-02-25T06:56:25.415Z,103156.25
2019-02-25T07:01:29.634Z,103169.15
2019-02-25T07:06:45.505Z,103175.16
2019-02-25T07:12:01.313Z,103176.61
2019-02-25T07:17:22.686Z,103183.96
2019-02-25T07:22:33.546Z,103180.69
2019-02-25T07:28:02.870Z,103182.84
2019-02-25T07:33:24.315Z,103183.17
2019-02-25T07:38:53.705Z,103187.90
2019-02-25T07:44:10.348Z,103194.22
2019-02-25T07:49:32.481Z,103192.78
2019-02-25T07:55:04.801Z,103191.92
2019-02-25T08:00:18.958Z,103196.36
2019-02-25T08:05:41.428Z,103188.55
2019-02-25T08:10:58.988Z,103184.48
2019-02-25T08:16:34.503Z,103185.97
2019-02-25T08:22:13.114Z,103180.78
2019-02-25T08:27:36.295Z,103171.63
2019-02-25T08:32:59.464Z,103164.66
2019-02-25T08:38:34.809Z,103169.69
2019-02-25T08:44:04.283Z,103166.63
2019-02-25T08:49:12.760Z,103179.66
2019-02-25T08:54:17.118Z,103173.41
2019-02-25T08:59:21.361Z,103172.94
2019-02-25T09:04:25.628Z,103176.94
2019-02-25T09:09:29.876Z,103187.47
2019-02-25T09:14:34.110Z,103184.73
2019-02-25T09:19:38.351Z,103185.50
2019-02-25T09:24:42.609Z,103183.41
2019-02-25T09:29:46.849Z,103171.29
2019-02-25T09:34:51.080Z,103170.54
2019-02-25T09:39:55.323Z,103165.66
2019-02-25T09:44:59.596Z,103162.30
2019-02-25T09:50:03.827Z,103159.60
2019-02-25T09:55:09.478Z,103168.31
2019-02-25T10:00:15.755Z,103167.33
2019-02-25T10:05:20.054Z,103166.84
2019-02-25T10:10:24.287Z,103145.76
2019-02-25T10:15:28.543Z,103135.58
2019-02-25T10:20:32.774Z,103123.98
2019-02-25T10:25:37.027Z,103129.66
2019-02-25T10:30:41.295Z,103125.13
2019-02-25T10:35:45.560Z,103125.59
2019-02-25T10:40:51.607Z,103120.84
2019-02-25T10:45:55.743Z,103124.03
2019-02-25T10:50:59.971Z,103101.09
2019-02-25T10:56:26.901Z,103100.27
2019-02-25T11:01:31.165Z,103104.55
2019-02-25T11:06:36.024Z,103089.77
2019-02-25T11:11:41.375Z,103091.56
2019-02-25T11:16:46.410Z,103078.38
2019-02-25T11:21:51.601Z,103074.91
2019-02-25T11:26:56.900Z,103076.27
2019-02-25T11:32:01.793Z,103061.39
2019-02-25T11:37:08.169Z,103063.77
2019-02-25T11:42:13.525Z,103065.49
2019-02-25T11:47:18.366Z,103064.79
2019-02-25T11:52:22.630Z,103055.53
2019-02-25T11:57:26.878Z,103042.68
2019-02-25T12:02:31.125Z,103035.97
2019-02-25T12:07:35.359Z,103025.46
2019-02-25T12:12:39.592Z,103012.11
2019-02-25T12:17:43.820Z,102997.54
2019-02-25T12:22:48.074Z,102990.92
2019-02-25T12:27:52.305Z,102982.30
2019-02-25T12:32:56.548Z,102967.98
2019-02-25T12:38:00.803Z,102949.59
2019-02-25T12:43:05.038Z,102938.23
2019-02-25T12:48:09.286Z,102922.87
2019-02-25T12:53:13.575Z,102918.06
2019-02-25T12:58:18.081Z,102918.75
2019-02-25T13:03:22.320Z,102907.11
2019-02-25T13:08:26.577Z,102912.14
2019-02-25T13:13:30.817Z,102908.36
2019-02-25T13:18:35.286Z,102910.80
2019-02-25T13:23:39.563Z,102915.55
2019-02-25T13:28:43.828Z,102912.67
2019-02-25T13:33:48.105Z,102924.67
2019-02-25T13:38:52.346Z,102932.30
2019-02-25T13:43:56.592Z,102934.22
2019-02-25T13:49:00.820Z,102933.23
2019-02-25T13:54:05.175Z,102940.30
2019-02-25T13:59:09.440Z,102928.34
2019-02-25T14:04:13.739Z,102923.14
2019-02-25T14:09:17.983Z,102920.78
2019-02-25T14:14:22.213Z,102904.33
2019-02-25T14:19:26.479Z,102896.39
2019-02-25T14:24:30.683Z,102900.98
2019-02-25T14:29:34.946Z,102895.70
2019-02-25T14:34:39.183Z,102889.53
2019-02-25T14:39:43.629Z,102877.85
2019-02-25T14:44:49.956Z,102873.83
2019-02-25T14:49:54.828Z,102862.34
2019-02-25T14:55:00.960Z,102867.05
2019-02-25T15:00:06.235Z,102869.22
2019-02-25T15:05:10.834Z,102859.41
2019-02-25T15:10:15.726Z,102858.12
2019-02-25T15:15:20.286Z,102861.59
2019-02-25T15:20:26.191Z,102859.52
2019-02-25T15:25:31.624Z,102846.40
2019-02-25T15:30:36.545Z,102855.57
2019-02-25T15:35:41.700Z,102853.97
2019-02-25T15:40:46.732Z,102866.00
2019-02-25T15:45:51.068Z,102866.91
2019-02-25T15:50:57.969Z,102873.36
2019-02-25T15:56:03.572Z,102881.86
2019-02-25T16:01:09.183Z,102871.98
2019-02-25T16:06:13.538Z,102871.22
2019-02-25T16:11:18.940Z,102877.10
2019-02-25T16:16:24.414Z,102868.34
2019-02-25T16:21:28.799Z,102867.41
2019-02-25T16:26:34.195Z,102860.77
2019-02-25T16:31:39.152Z,102855.46
2019-02-25T16:36:44.838Z,102856.00
2019-02-25T16:41:49.375Z,102856.47
2019-02-25T16:46:54.144Z,102867.09
2019-02-25T16:52:00.327Z,102871.22
2019-02-25T16:57:04.419Z,102864.23
2019-02-25T17:02:11.859Z,102855.53
2019-02-25T17:07:16.143Z,102867.43
2019-02-25T17:12:21.173Z,102878.34
2019-02-25T17:17:26.599Z,102878.06
2019-02-25T17:22:30.856Z,102876.81
2019-02-25T17:27:35.110Z,102869.30
2019-02-25T17:32:39.855Z,102870.33
2019-02-25T17:37:45.342Z,102876.03
2019-02-25T17:42:51.533Z,102873.55
2019-02-25T17:47:58.329Z,102865.55
2019-02-25T17:53:03.020Z,102869.58
2019-02-25T17:58:08.551Z,102870.64
2019-02-25T18:03:13.081Z,102869.78
2019-02-25T18:08:19.209Z,102863.64
2019-02-25T18:13:23.679Z,102862.14
2019-02-25T18:18:29.525Z,102854.80
2019-02-25T18:23:34.450Z,102851.44
2019-02-25T18:28:40.031Z,102845.75
2019-02-25T18:33:46.789Z,102854.45
2019-02-25T18:38:52.710Z,102853.47
2019-02-25T18:43:57.804Z,102845.99
2019-02-25T18:49:03.097Z,102839.31
2019-02-25T18:54:08.099Z,102849.67
2019-02-25T18:59:15.487Z,102849.20
2019-02-25T19:04:19.750Z,102854.59
2019-02-25T19:09:25.637Z,102863.80
2019-02-25T19:14:31.150Z,102867.99
2019-02-25T19:19:38.461Z,102860.33
2019-02-25T19:24:44.585Z,102854.63
2019-02-25T19:29:49.401Z,102855.45
2019-02-25T19:34:56.159Z,102843.58
2019-02-25T19:40:00.891Z,102840.42
2019-02-25T19:45:07.748Z,102837.40
2019-02-25T19:50:13.178Z,102839.89
2019-02-25T19:55:20.247Z,102837.91
2019-02-25T20:00:27.708Z,102827.67
2019-02-25T20:05:33.282Z,102829.70
2019-02-25T20:10:37.804Z,102838.89
2019-02-25T20:15:44.093Z,102842.26
2019-02-25T20:20:48.239Z,102836.58
2019-02-25T20:25:53.509Z,102834.07
2019-02-25T20:30:58.802Z,102832.06
2019-02-25T20:36:03.282Z,102821.37
2019-02-25T20:41:07.585Z,102814.34
2019-02-25T20:46:11.855Z,102818.83
2019-02-25T20:51:16.106Z,102816.66
2019-02-25T20:56:20.358Z,102804.44
2019-02-25T21:01:25.120Z,102811.98
2019-02-25T21:06:29.548Z,102812.78
2019-02-25T21:11:33.790Z,102810.61
2019-02-25T21:16:38.021Z,102799.77
2019-02-25T21:21:42.273Z,102804.42
2019-02-25T21:26:46.514Z,102797.41
2019-02-25T21:31:52.311Z,102781.52
2019-02-25T21:36:58.496Z,102774.69
2019-02-25T21:42:02.725Z,102765.16
2019-02-25T21:47:06.957Z,102774.64
2019-02-25T21:52:13.078Z,102774.97
2019-02-25T21:57:17.174Z,102778.13
2019-02-25T22:02:21.556Z,102778.78
2019-02-25T22:07:27.218Z,102774.75
2019-02-25T22:12:33.152Z,102781.09
2019-02-25T22:17:38.604Z,102784.08
2019-02-25T22:22:43.682Z,102787.41
2019-02-25T22:27:47.917Z,102791.67
2019-02-25T22:32:52.137Z,102787.64
2019-02-25T22:37:58.090Z,102787.27
2019-02-25T22:43:02.525Z,102790.61
2019-02-25T22:48:06.760Z,102796.42
2019-02-25T22:53:11.317Z,102796.27
2019-02-25T22:58:17.046Z,102798.20
2019-02-25T23:03:23.190Z,102782.73
2019-02-25T23:08:27.630Z,102788.26
2019-02-25T23:13:32.048Z,102764.38
2019-02-25T23:18:36.359Z,102766.30
2019-02-25T23:23:40.662Z,102751.03
2019-02-25T23:28:44.880Z,102728.16
2019-02-25T23:33:51.110Z,102713.99
2019-02-25T23:38:57.011Z,102719.97
2019-02-25T23:44:01.052Z,102723.93
2019-02-25T23:49:05.280Z,102729.16
2019-02-25T23:54:12.173Z,102723.70
2019-02-25T23:59:17.106Z,102731.63
